Terminal Aerodrome Forecast
Issued by NWS Tuscon, AZ

Home | Current Version | Previous Version | Text Only | Print | Product List | Glossary On
Versions: 1 2 3 4 5 6 7 8 9 10 11 12 13 14 15 16 17
000
FTUS45 KTWC 042338
TAFDUG
TAF
KDUG 042338Z 0500/0524 19007KT P6SM VCSH FEW060 BKN100 OVC180
     FM050300 VRB05KT P6SM VCSH BKN100 OVC200
     FM050700 VRB05KT P6SM BKN100 OVC200
     FM051800 22006KT P6SM SCT090 BKN200=

USA.gov is the U.S. government's official web portal to all federal, state and local government web resources and services.